sensor_id;sensor_type;location;lat;lon;timestamp;temperature;humidity
52273;DHT22;38227;50.942;4.016;2022-09-09T07:33:36;16.80;99.90
52273;DHT22;38227;50.942;4.016;2022-09-09T07:36:19;16.20;99.90
52273;DHT22;38227;50.942;4.016;2022-09-09T07:38:54;16.30;99.90
52273;DHT22;38227;50.942;4.016;2022-09-09T07:41:38;16.50;99.90
52273;DHT22;38227;50.942;4.016;2022-09-09T07:44:12;16.60;99.90
52273;DHT22;38227;50.942;4.016;2022-09-09T07:46:44;16.80;99.90
52273;DHT22;38227;50.942;4.016;2022-09-09T07:49:16;16.90;99.90
52273;DHT22;38227;50.942;4.016;2022-09-09T07:51:54;17.00;99.90
52273;DHT22;38227;50.942;4.016;2022-09-09T07:54:23;17.20;99.90
52273;DHT22;38227;50.942;4.016;2022-09-09T07:56:52;17.20;99.90
52273;DHT22;38227;50.942;4.016;2022-09-09T07:59:20;17.20;99.90
52273;DHT22;38227;50.942;4.016;2022-09-09T08:01:50;17.30;99.90
52273;DHT22;38227;50.942;4.016;2022-09-09T08:04:22;17.40;99.90
52273;DHT22;38227;50.942;4.016;2022-09-09T08:06:57;17.50;99.90
52273;DHT22;38227;50.942;4.016;2022-09-09T08:09:26;17.60;99.90
52273;DHT22;38227;50.942;4.016;2022-09-09T08:11:56;17.60;99.90
52273;DHT22;38227;50.942;4.016;2022-09-09T08:14:24;17.60;99.90
52273;DHT22;38227;50.942;4.016;2022-09-09T08:16:52;17.50;99.90
52273;DHT22;38227;50.942;4.016;2022-09-09T08:19:24;17.60;99.90
52273;DHT22;38227;50.942;4.016;2022-09-09T08:21:59;17.50;99.90
52273;DHT22;38227;50.942;4.016;2022-09-09T08:24:27;17.50;99.90
52273;DHT22;38227;50.942;4.016;2022-09-09T08:26:58;17.30;99.90
52273;DHT22;38227;50.942;4.016;2022-09-09T08:29:26;17.30;99.90
52273;DHT22;38227;50.942;4.016;2022-09-09T08:31:58;17.30;99.90
52273;DHT22;38227;50.942;4.016;2022-09-09T08:34:27;17.30;99.90
52273;DHT22;38227;50.942;4.016;2022-09-09T08:36:56;17.20;99.90
52273;DHT22;38227;50.942;4.016;2022-09-09T08:39:34;17.10;99.90
52273;DHT22;38227;50.942;4.016;2022-09-09T08:42:49;17.10;99.90
52273;DHT22;38227;50.942;4.016;2022-09-09T08:45:25;17.10;99.90
52273;DHT22;38227;50.942;4.016;2022-09-09T08:49:03;17.10;99.90
52273;DHT22;38227;50.942;4.016;2022-09-09T08:51:05;17.10;99.90
52273;DHT22;38227;50.942;4.016;2022-09-09T08:53:43;17.10;99.90
52273;DHT22;38227;50.942;4.016;2022-09-09T08:56:23;17.10;99.90
52273;DHT22;38227;50.942;4.016;2022-09-09T08:58:54;17.10;99.90
52273;DHT22;38227;50.942;4.016;2022-09-09T09:05:16;17.20;99.90
52273;DHT22;38227;50.942;4.016;2022-09-09T09:08:51;17.30;99.90
52273;DHT22;38227;50.942;4.016;2022-09-09T09:10:56;17.40;99.90
52273;DHT22;38227;50.942;4.016;2022-09-09T09:14:00;17.40;99.90
52273;DHT22;38227;50.942;4.016;2022-09-09T09:16:38;17.60;99.90
52273;DHT22;38227;50.942;4.016;2022-09-09T09:19:15;17.60;99.90
52273;DHT22;38227;50.942;4.016;2022-09-09T09:21:57;17.60;99.90
52273;DHT22;38227;50.942;4.016;2022-09-09T09:28:10;17.50;99.90
52273;DHT22;38227;50.942;4.016;2022-09-09T09:31:06;17.40;99.90
52273;DHT22;38227;50.942;4.016;2022-09-09T09:33:54;17.50;99.90
52273;DHT22;38227;50.942;4.016;2022-09-09T09:36:40;17.50;99.90
52273;DHT22;38227;50.942;4.016;2022-09-09T09:39:10;17.50;99.90
52273;DHT22;38227;50.942;4.016;2022-09-09T09:41:41;17.50;99.90
52273;DHT22;38227;50.942;4.016;2022-09-09T09:47:21;17.60;99.90
52273;DHT22;38227;50.942;4.016;2022-09-09T09:49:57;17.70;99.90
52273;DHT22;38227;50.942;4.016;2022-09-09T09:52:28;17.80;99.90
52273;DHT22;38227;50.942;4.016;2022-09-09T09:54:58;18.00;99.90
52273;DHT22;38227;50.942;4.016;2022-09-09T09:57:29;18.00;99.90
52273;DHT22;38227;50.942;4.016;2022-09-09T10:00:12;18.10;99.90
52273;DHT22;38227;50.942;4.016;2022-09-09T10:02:43;18.10;99.90
52273;DHT22;38227;50.942;4.016;2022-09-09T10:05:22;18.30;99.90
52273;DHT22;38227;50.942;4.016;2022-09-09T10:20:32;18.60;99.90
52273;DHT22;38227;50.942;4.016;2022-09-09T10:33:31;18.40;99.90
52273;DHT22;38227;50.942;4.016;2022-09-09T10:36:29;18.40;99.90
52273;DHT22;38227;50.942;4.016;2022-09-09T10:39:39;18.40;99.90
52273;DHT22;38227;50.942;4.016;2022-09-09T10:42:36;18.20;99.90
52273;DHT22;38227;50.942;4.016;2022-09-09T10:45:51;18.40;99.90
52273;DHT22;38227;50.942;4.016;2022-09-09T10:55:22;18.70;99.90
52273;DHT22;38227;50.942;4.016;2022-09-09T10:57:58;18.90;99.90
52273;DHT22;38227;50.942;4.016;2022-09-09T11:00:54;18.90;99.90
52273;DHT22;38227;50.942;4.016;2022-09-09T11:03:26;19.00;99.90
52273;DHT22;38227;50.942;4.016;2022-09-09T11:06:11;19.10;99.90
52273;DHT22;38227;50.942;4.016;2022-09-09T11:08:39;19.10;99.90
52273;DHT22;38227;50.942;4.016;2022-09-09T11:11:38;19.10;99.90
52273;DHT22;38227;50.942;4.016;2022-09-09T11:14:21;19.20;99.90
52273;DHT22;38227;50.942;4.016;2022-09-09T11:17:24;19.50;99.90
52273;DHT22;38227;50.942;4.016;2022-09-09T11:19:54;19.50;99.90
52273;DHT22;38227;50.942;4.016;2022-09-09T11:22:46;19.60;99.90
52273;DHT22;38227;50.942;4.016;2022-09-09T11:25:28;19.60;99.90
52273;DHT22;38227;50.942;4.016;2022-09-09T11:40:41;19.50;99.90
52273;DHT22;38227;50.942;4.016;2022-09-09T11:43:15;19.40;99.90
52273;DHT22;38227;50.942;4.016;2022-09-09T11:45:55;19.50;99.90
52273;DHT22;38227;50.942;4.016;2022-09-09T11:48:37;19.70;99.90
52273;DHT22;38227;50.942;4.016;2022-09-09T11:51:29;19.80;99.90
52273;DHT22;38227;50.942;4.016;2022-09-09T11:54:30;19.90;99.90
52273;DHT22;38227;50.942;4.016;2022-09-09T11:57:00;19.80;99.90
52273;DHT22;38227;50.942;4.016;2022-09-09T11:59:31;19.80;99.90
52273;DHT22;38227;50.942;4.016;2022-09-09T12:05:15;20.20;99.90
52273;DHT22;38227;50.942;4.016;2022-09-09T12:07:56;20.40;99.90
52273;DHT22;38227;50.942;4.016;2022-09-09T12:10:57;20.60;99.90
52273;DHT22;38227;50.942;4.016;2022-09-09T12:13:27;20.40;99.90
52273;DHT22;38227;50.942;4.016;2022-09-09T12:15:59;20.50;99.90
52273;DHT22;38227;50.942;4.016;2022-09-09T12:19:02;20.70;99.90
52273;DHT22;38227;50.942;4.016;2022-09-09T12:31:17;20.30;99.90
52273;DHT22;38227;50.942;4.016;2022-09-09T12:37:59;20.90;99.90
52273;DHT22;38227;50.942;4.016;2022-09-09T12:40:30;20.90;99.90
52273;DHT22;38227;50.942;4.016;2022-09-09T12:43:16;20.80;99.90
52273;DHT22;38227;50.942;4.016;2022-09-09T12:45:44;20.70;99.90
52273;DHT22;38227;50.942;4.016;2022-09-09T12:48:20;20.60;99.90
52273;DHT22;38227;50.942;4.016;2022-09-09T12:50:54;20.40;99.90
52273;DHT22;38227;50.942;4.016;2022-09-09T12:53:30;20.40;99.90
52273;DHT22;38227;50.942;4.016;2022-09-09T12:56:07;20.60;99.90
52273;DHT22;38227;50.942;4.016;2022-09-09T12:58:44;20.80;99.90
52273;DHT22;38227;50.942;4.016;2022-09-09T13:01:33;20.90;99.90
52273;DHT22;38227;50.942;4.016;2022-09-09T13:04:02;21.10;99.90
52273;DHT22;38227;50.942;4.016;2022-09-09T13:06:32;21.30;99.90
52273;DHT22;38227;50.942;4.016;2022-09-09T13:09:02;21.40;99.90
52273;DHT22;38227;50.942;4.016;2022-09-09T13:11:36;21.50;99.90
52273;DHT22;38227;50.942;4.016;2022-09-09T13:14:04;21.30;99.90
52273;DHT22;38227;50.942;4.016;2022-09-09T13:16:35;21.20;99.90
52273;DHT22;38227;50.942;4.016;2022-09-09T13:19:26;21.10;99.90
52273;DHT22;38227;50.942;4.016;2022-09-09T13:21:59;21.00;99.90
52273;DHT22;38227;50.942;4.016;2022-09-09T13:24:48;21.00;99.90
52273;DHT22;38227;50.942;4.016;2022-09-09T13:27:38;21.30;99.90
52273;DHT22;38227;50.942;4.016;2022-09-09T13:33:36;21.60;99.90
52273;DHT22;38227;50.942;4.016;2022-09-09T13:36:07;21.80;99.90
52273;DHT22;38227;50.942;4.016;2022-09-09T13:38:53;21.80;99.90
52273;DHT22;38227;50.942;4.016;2022-09-09T13:41:24;21.70;99.90
52273;DHT22;38227;50.942;4.016;2022-09-09T13:43:52;21.70;99.90
52273;DHT22;38227;50.942;4.016;2022-09-09T13:46:47;21.90;99.90
52273;DHT22;38227;50.942;4.016;2022-09-09T13:49:35;21.90;99.90
52273;DHT22;38227;50.942;4.016;2022-09-09T13:52:10;21.70;99.90
52273;DHT22;38227;50.942;4.016;2022-09-09T13:54:40;21.60;99.90
52273;DHT22;38227;50.942;4.016;2022-09-09T13:57:19;21.60;99.90
52273;DHT22;38227;50.942;4.016;2022-09-09T13:59:48;21.60;99.90
52273;DHT22;38227;50.942;4.016;2022-09-09T14:02:17;21.60;99.90
52273;DHT22;38227;50.942;4.016;2022-09-09T14:04:45;21.70;99.90
52273;DHT22;38227;50.942;4.016;2022-09-09T14:07:17;21.80;99.90
52273;DHT22;38227;50.942;4.016;2022-09-09T14:09:49;21.90;99.90
52273;DHT22;38227;50.942;4.016;2022-09-09T14:12:22;21.60;99.90
52273;DHT22;38227;50.942;4.016;2022-09-09T14:14:50;21.70;99.90
52273;DHT22;38227;50.942;4.016;2022-09-09T14:17:18;21.80;99.90
52273;DHT22;38227;50.942;4.016;2022-09-09T14:19:47;22.10;99.90
52273;DHT22;38227;50.942;4.016;2022-09-09T14:22:16;22.30;99.90
52273;DHT22;38227;50.942;4.016;2022-09-09T14:24:44;22.50;99.90
52273;DHT22;38227;50.942;4.016;2022-09-09T14:27:13;22.50;99.90
52273;DHT22;38227;50.942;4.016;2022-09-09T14:29:40;22.70;99.90
52273;DHT22;38227;50.942;4.016;2022-09-09T14:32:11;23.00;99.90
52273;DHT22;38227;50.942;4.016;2022-09-09T14:34:39;22.90;99.90
52273;DHT22;38227;50.942;4.016;2022-09-09T14:37:07;22.70;99.90
52273;DHT22;38227;50.942;4.016;2022-09-09T14:39:35;22.70;99.90
52273;DHT22;38227;50.942;4.016;2022-09-09T14:42:03;22.70;99.90
52273;DHT22;38227;50.942;4.016;2022-09-09T14:44:32;22.70;99.90
52273;DHT22;38227;50.942;4.016;2022-09-09T14:47:00;22.60;99.90
52273;DHT22;38227;50.942;4.016;2022-09-09T14:49:28;22.50;99.90
52273;DHT22;38227;50.942;4.016;2022-09-09T14:51:57;22.30;99.90
52273;DHT22;38227;50.942;4.016;2022-09-09T14:54:25;22.10;99.90
52273;DHT22;38227;50.942;4.016;2022-09-09T14:56:55;22.10;99.90
52273;DHT22;38227;50.942;4.016;2022-09-09T14:59:33;22.00;99.90
52273;DHT22;38227;50.942;4.016;2022-09-09T15:02:01;21.60;99.90
52273;DHT22;38227;50.942;4.016;2022-09-09T15:04:34;21.40;99.90
52273;DHT22;38227;50.942;4.016;2022-09-09T15:07:07;21.30;99.90
52273;DHT22;38227;50.942;4.016;2022-09-09T15:09:36;21.30;99.90
52273;DHT22;38227;50.942;4.016;2022-09-09T15:12:05;21.00;99.90
52273;DHT22;38227;50.942;4.016;2022-09-09T15:14:34;21.00;99.90
52273;DHT22;38227;50.942;4.016;2022-09-09T15:17:04;21.10;99.90
52273;DHT22;38227;50.942;4.016;2022-09-09T15:19:36;21.10;99.90
52273;DHT22;38227;50.942;4.016;2022-09-09T15:22:24;21.00;99.90
52273;DHT22;38227;50.942;4.016;2022-09-09T15:24:55;20.80;99.90
52273;DHT22;38227;50.942;4.016;2022-09-09T15:27:24;20.60;99.90
52273;DHT22;38227;50.942;4.016;2022-09-09T15:29:52;20.40;99.90
52273;DHT22;38227;50.942;4.016;2022-09-09T15:32:27;20.30;99.90
52273;DHT22;38227;50.942;4.016;2022-09-09T15:34:55;19.80;99.90
52273;DHT22;38227;50.942;4.016;2022-09-09T15:37:28;19.60;99.90
52273;DHT22;38227;50.942;4.016;2022-09-09T15:39:56;19.50;99.90
52273;DHT22;38227;50.942;4.016;2022-09-09T15:42:36;19.60;99.90
52273;DHT22;38227;50.942;4.016;2022-09-09T15:45:05;19.50;99.90
52273;DHT22;38227;50.942;4.016;2022-09-09T15:47:38;19.70;99.90
52273;DHT22;38227;50.942;4.016;2022-09-09T15:50:07;19.60;99.90
52273;DHT22;38227;50.942;4.016;2022-09-09T15:52:36;19.50;99.90
52273;DHT22;38227;50.942;4.016;2022-09-09T15:55:07;19.60;99.90
52273;DHT22;38227;50.942;4.016;2022-09-09T15:57:36;19.60;99.90
52273;DHT22;38227;50.942;4.016;2022-09-09T16:00:05;19.60;99.90
52273;DHT22;38227;50.942;4.016;2022-09-09T16:02:34;19.60;99.90
52273;DHT22;38227;50.942;4.016;2022-09-09T16:05:13;19.70;99.90
52273;DHT22;38227;50.942;4.016;2022-09-09T16:07:44;19.80;99.90
52273;DHT22;38227;50.942;4.016;2022-09-09T16:10:17;19.70;99.90
52273;DHT22;38227;50.942;4.016;2022-09-09T16:12:47;19.60;99.90
52273;DHT22;38227;50.942;4.016;2022-09-09T16:15:19;19.50;99.90
52273;DHT22;38227;50.942;4.016;2022-09-09T16:17:48;19.40;99.90
52273;DHT22;38227;50.942;4.016;2022-09-09T16:20:16;19.10;99.90
52273;DHT22;38227;50.942;4.016;2022-09-09T16:22:54;19.00;99.90
52273;DHT22;38227;50.942;4.016;2022-09-09T16:25:23;19.00;99.90
52273;DHT22;38227;50.942;4.016;2022-09-09T16:27:51;19.00;99.90
52273;DHT22;38227;50.942;4.016;2022-09-09T16:30:19;19.10;99.90
52273;DHT22;38227;50.942;4.016;2022-09-09T16:32:57;18.90;99.90
52273;DHT22;38227;50.942;4.016;2022-09-09T16:35:25;19.10;99.90
52273;DHT22;38227;50.942;4.016;2022-09-09T16:37:58;19.00;99.90
52273;DHT22;38227;50.942;4.016;2022-09-09T16:40:27;19.30;99.90
52273;DHT22;38227;50.942;4.016;2022-09-09T16:43:06;19.40;99.90
52273;DHT22;38227;50.942;4.016;2022-09-09T16:45:42;19.50;99.90
52273;DHT22;38227;50.942;4.016;2022-09-09T16:48:15;19.70;99.90
52273;DHT22;38227;50.942;4.016;2022-09-09T16:50:43;19.80;99.90
52273;DHT22;38227;50.942;4.016;2022-09-09T16:53:12;19.80;99.90
52273;DHT22;38227;50.942;4.016;2022-09-09T16:55:41;19.90;99.90
52273;DHT22;38227;50.942;4.016;2022-09-09T16:58:13;20.10;99.90
52273;DHT22;38227;50.942;4.016;2022-09-09T17:00:45;20.20;99.90
52273;DHT22;38227;50.942;4.016;2022-09-09T17:03:15;20.10;99.90
52273;DHT22;38227;50.942;4.016;2022-09-09T17:05:44;20.10;99.90
52273;DHT22;38227;50.942;4.016;2022-09-09T17:08:12;20.20;99.90
52273;DHT22;38227;50.942;4.016;2022-09-09T17:10:43;20.20;99.90
52273;DHT22;38227;50.942;4.016;2022-09-09T17:13:11;20.10;99.90
52273;DHT22;38227;50.942;4.016;2022-09-09T17:15:40;20.00;99.90
52273;DHT22;38227;50.942;4.016;2022-09-09T17:18:10;20.10;99.90
52273;DHT22;38227;50.942;4.016;2022-09-09T17:20:40;20.10;99.90
52273;DHT22;38227;50.942;4.016;2022-09-09T17:23:10;20.10;99.90
52273;DHT22;38227;50.942;4.016;2022-09-09T17:25:44;20.00;99.90
52273;DHT22;38227;50.942;4.016;2022-09-09T17:28:14;20.10;99.90
52273;DHT22;38227;50.942;4.016;2022-09-09T17:30:42;20.10;99.90
52273;DHT22;38227;50.942;4.016;2022-09-09T17:33:13;20.10;99.90
52273;DHT22;38227;50.942;4.016;2022-09-09T17:35:45;20.10;99.90
52273;DHT22;38227;50.942;4.016;2022-09-09T17:38:26;20.00;99.90
52273;DHT22;38227;50.942;4.016;2022-09-09T17:41:08;19.90;99.90
52273;DHT22;38227;50.942;4.016;2022-09-09T17:43:37;19.80;99.90
52273;DHT22;38227;50.942;4.016;2022-09-09T17:46:38;19.70;99.90
52273;DHT22;38227;50.942;4.016;2022-09-09T17:49:16;19.60;99.90
52273;DHT22;38227;50.942;4.016;2022-09-09T17:51:46;19.50;99.90
52273;DHT22;38227;50.942;4.016;2022-09-09T17:54:17;19.40;99.90
52273;DHT22;38227;50.942;4.016;2022-09-09T17:56:46;19.30;99.90
52273;DHT22;38227;50.942;4.016;2022-09-09T17:59:16;19.20;99.90
52273;DHT22;38227;50.942;4.016;2022-09-09T18:01:46;19.20;99.90
52273;DHT22;38227;50.942;4.016;2022-09-09T18:04:16;19.20;99.90
52273;DHT22;38227;50.942;4.016;2022-09-09T18:06:47;19.10;99.90
52273;DHT22;38227;50.942;4.016;2022-09-09T18:09:21;19.20;99.90
52273;DHT22;38227;50.942;4.016;2022-09-09T18:11:54;19.10;99.90
52273;DHT22;38227;50.942;4.016;2022-09-09T18:14:28;18.90;99.90
52273;DHT22;38227;50.942;4.016;2022-09-09T18:16:56;18.90;99.90
52273;DHT22;38227;50.942;4.016;2022-09-09T18:19:27;18.90;99.90
52273;DHT22;38227;50.942;4.016;2022-09-09T18:21:56;18.90;99.90
52273;DHT22;38227;50.942;4.016;2022-09-09T18:24:28;18.90;99.90
52273;DHT22;38227;50.942;4.016;2022-09-09T18:26:57;18.80;99.90
52273;DHT22;38227;50.942;4.016;2022-09-09T18:29:29;18.80;99.90
52273;DHT22;38227;50.942;4.016;2022-09-09T18:31:58;18.80;99.90
52273;DHT22;38227;50.942;4.016;2022-09-09T18:34:36;18.80;99.90
52273;DHT22;38227;50.942;4.016;2022-09-09T18:37:04;18.70;99.90
52273;DHT22;38227;50.942;4.016;2022-09-09T18:39:33;18.70;99.90
52273;DHT22;38227;50.942;4.016;2022-09-09T18:42:05;18.80;99.90
52273;DHT22;38227;50.942;4.016;2022-09-09T18:44:34;18.80;99.90
52273;DHT22;38227;50.942;4.016;2022-09-09T18:47:04;18.80;99.90
52273;DHT22;38227;50.942;4.016;2022-09-09T18:49:37;18.70;99.90
52273;DHT22;38227;50.942;4.016;2022-09-09T18:52:05;18.70;99.90
52273;DHT22;38227;50.942;4.016;2022-09-09T18:54:33;18.80;99.90
52273;DHT22;38227;50.942;4.016;2022-09-09T18:57:05;18.80;99.90
52273;DHT22;38227;50.942;4.016;2022-09-09T18:59:33;18.80;99.90
52273;DHT22;38227;50.942;4.016;2022-09-09T19:02:02;18.70;99.90
52273;DHT22;38227;50.942;4.016;2022-09-09T19:04:34;18.70;99.90
52273;DHT22;38227;50.942;4.016;2022-09-09T19:07:02;18.70;99.90
52273;DHT22;38227;50.942;4.016;2022-09-09T19:09:32;18.60;99.90
52273;DHT22;38227;50.942;4.016;2022-09-09T19:12:02;18.70;99.90
52273;DHT22;38227;50.942;4.016;2022-09-09T19:14:34;18.60;99.90
52273;DHT22;38227;50.942;4.016;2022-09-09T19:17:02;18.60;99.90
52273;DHT22;38227;50.942;4.016;2022-09-09T19:19:32;18.60;99.90
52273;DHT22;38227;50.942;4.016;2022-09-09T19:22:01;18.50;99.90
52273;DHT22;38227;50.942;4.016;2022-09-09T19:24:32;18.50;99.90
52273;DHT22;38227;50.942;4.016;2022-09-09T19:27:03;18.50;99.90
52273;DHT22;38227;50.942;4.016;2022-09-09T19:29:34;18.40;99.90
52273;DHT22;38227;50.942;4.016;2022-09-09T19:32:07;18.50;99.90
52273;DHT22;38227;50.942;4.016;2022-09-09T19:34:37;18.50;99.90
52273;DHT22;38227;50.942;4.016;2022-09-09T19:37:08;18.40;99.90
52273;DHT22;38227;50.942;4.016;2022-09-09T19:39:36;18.30;99.90
52273;DHT22;38227;50.942;4.016;2022-09-09T19:42:10;18.30;99.90
52273;DHT22;38227;50.942;4.016;2022-09-09T19:44:39;18.20;99.90
52273;DHT22;38227;50.942;4.016;2022-09-09T19:47:11;18.20;99.90
52273;DHT22;38227;50.942;4.016;2022-09-09T19:49:39;18.20;99.90
52273;DHT22;38227;50.942;4.016;2022-09-09T19:52:11;18.30;99.90
52273;DHT22;38227;50.942;4.016;2022-09-09T19:54:40;18.30;99.90
52273;DHT22;38227;50.942;4.016;2022-09-09T19:57:08;18.20;99.90
52273;DHT22;38227;50.942;4.016;2022-09-09T19:59:46;18.10;99.90
52273;DHT22;38227;50.942;4.016;2022-09-09T20:02:15;18.10;99.90
52273;DHT22;38227;50.942;4.016;2022-09-09T20:04:46;18.10;99.90
52273;DHT22;38227;50.942;4.016;2022-09-09T20:07:14;18.10;99.90
52273;DHT22;38227;50.942;4.016;2022-09-09T20:09:48;18.10;99.90
52273;DHT22;38227;50.942;4.016;2022-09-09T20:12:17;18.00;99.90
52273;DHT22;38227;50.942;4.016;2022-09-09T20:14:55;18.10;99.90
52273;DHT22;38227;50.942;4.016;2022-09-09T20:17:23;18.10;99.90
52273;DHT22;38227;50.942;4.016;2022-09-09T20:19:55;17.90;99.90
52273;DHT22;38227;50.942;4.016;2022-09-09T20:22:23;17.80;99.90
52273;DHT22;38227;50.942;4.016;2022-09-09T20:25:01;17.70;99.90
52273;DHT22;38227;50.942;4.016;2022-09-09T20:27:30;17.70;99.90
52273;DHT22;38227;50.942;4.016;2022-09-09T20:30:02;17.70;99.90
52273;DHT22;38227;50.942;4.016;2022-09-09T20:32:31;17.80;99.90
52273;DHT22;38227;50.942;4.016;2022-09-09T20:35:03;17.70;99.90
52273;DHT22;38227;50.942;4.016;2022-09-09T20:37:31;17.70;99.90
52273;DHT22;38227;50.942;4.016;2022-09-09T20:40:05;17.70;99.90
52273;DHT22;38227;50.942;4.016;2022-09-09T20:42:40;17.60;99.90
52273;DHT22;38227;50.942;4.016;2022-09-09T20:45:09;17.70;99.90
52273;DHT22;38227;50.942;4.016;2022-09-09T20:47:41;17.70;99.90
52273;DHT22;38227;50.942;4.016;2022-09-09T20:50:13;17.70;99.90
52273;DHT22;38227;50.942;4.016;2022-09-09T20:52:41;17.60;99.90
52273;DHT22;38227;50.942;4.016;2022-09-09T20:55:13;17.50;99.90
52273;DHT22;38227;50.942;4.016;2022-09-09T20:57:46;17.60;99.90
52273;DHT22;38227;50.942;4.016;2022-09-09T21:00:18;17.50;99.90
52273;DHT22;38227;50.942;4.016;2022-09-09T21:02:47;17.50;99.90
52273;DHT22;38227;50.942;4.016;2022-09-09T21:05:19;17.40;99.90
52273;DHT22;38227;50.942;4.016;2022-09-09T21:07:47;17.50;99.90
52273;DHT22;38227;50.942;4.016;2022-09-09T21:10:25;17.50;99.90
52273;DHT22;38227;50.942;4.016;2022-09-09T21:12:54;17.50;99.90
52273;DHT22;38227;50.942;4.016;2022-09-09T21:15:26;17.50;99.90
52273;DHT22;38227;50.942;4.016;2022-09-09T21:17:54;17.50;99.90
52273;DHT22;38227;50.942;4.016;2022-09-09T21:20:32;17.40;99.90
52273;DHT22;38227;50.942;4.016;2022-09-09T21:23:01;17.40;99.90
52273;DHT22;38227;50.942;4.016;2022-09-09T21:25:32;17.40;99.90
52273;DHT22;38227;50.942;4.016;2022-09-09T21:28:02;17.40;99.90
52273;DHT22;38227;50.942;4.016;2022-09-09T21:30:31;17.40;99.90
52273;DHT22;38227;50.942;4.016;2022-09-09T21:33:00;17.50;99.90
52273;DHT22;38227;50.942;4.016;2022-09-09T21:35:34;17.40;99.90
52273;DHT22;38227;50.942;4.016;2022-09-09T21:38:02;17.40;99.90
52273;DHT22;38227;50.942;4.016;2022-09-09T21:40:31;17.40;99.90
52273;DHT22;38227;50.942;4.016;2022-09-09T21:43:04;17.40;99.90
52273;DHT22;38227;50.942;4.016;2022-09-09T21:45:39;17.40;99.90
52273;DHT22;38227;50.942;4.016;2022-09-09T21:48:11;17.40;99.90
52273;DHT22;38227;50.942;4.016;2022-09-09T21:50:44;17.40;99.90
52273;DHT22;38227;50.942;4.016;2022-09-09T21:53:15;17.40;99.90
52273;DHT22;38227;50.942;4.016;2022-09-09T21:55:43;17.40;99.90
52273;DHT22;38227;50.942;4.016;2022-09-09T21:58:16;17.30;99.90
52273;DHT22;38227;50.942;4.016;2022-09-09T22:00:46;17.30;99.90
52273;DHT22;38227;50.942;4.016;2022-09-09T22:03:25;17.30;99.90
52273;DHT22;38227;50.942;4.016;2022-09-09T22:05:53;17.20;99.90
52273;DHT22;38227;50.942;4.016;2022-09-09T22:08:25;17.30;99.90
52273;DHT22;38227;50.942;4.016;2022-09-09T22:10:53;17.30;99.90
52273;DHT22;38227;50.942;4.016;2022-09-09T22:13:25;17.40;99.90
52273;DHT22;38227;50.942;4.016;2022-09-09T22:15:53;17.50;99.90
52273;DHT22;38227;50.942;4.016;2022-09-09T22:18:26;17.40;99.90
52273;DHT22;38227;50.942;4.016;2022-09-09T22:20:58;17.50;99.90
52273;DHT22;38227;50.942;4.016;2022-09-09T22:23:31;17.50;99.90
52273;DHT22;38227;50.942;4.016;2022-09-09T22:25:59;17.50;99.90
52273;DHT22;38227;50.942;4.016;2022-09-09T22:28:32;17.40;99.90
52273;DHT22;38227;50.942;4.016;2022-09-09T22:31:00;17.30;99.90
52273;DHT22;38227;50.942;4.016;2022-09-09T22:33:28;17.30;99.90
52273;DHT22;38227;50.942;4.016;2022-09-09T22:36:01;17.30;99.90
52273;DHT22;38227;50.942;4.016;2022-09-09T22:38:29;17.40;99.90
52273;DHT22;38227;50.942;4.016;2022-09-09T22:41:01;17.40;99.90
52273;DHT22;38227;50.942;4.016;2022-09-09T22:43:30;17.40;99.90
52273;DHT22;38227;50.942;4.016;2022-09-09T22:46:01;17.50;99.90
52273;DHT22;38227;50.942;4.016;2022-09-09T22:48:35;17.50;99.90
52273;DHT22;38227;50.942;4.016;2022-09-09T22:51:07;17.50;99.90
52273;DHT22;38227;50.942;4.016;2022-09-09T22:53:35;17.40;99.90
52273;DHT22;38227;50.942;4.016;2022-09-09T22:56:09;17.30;99.90
52273;DHT22;38227;50.942;4.016;2022-09-09T22:58:38;17.40;99.90
52273;DHT22;38227;50.942;4.016;2022-09-09T23:01:17;17.30;99.90
52273;DHT22;38227;50.942;4.016;2022-09-09T23:03:45;17.30;99.90
52273;DHT22;38227;50.942;4.016;2022-09-09T23:06:21;17.30;99.90
52273;DHT22;38227;50.942;4.016;2022-09-09T23:08:54;17.30;99.90
52273;DHT22;38227;50.942;4.016;2022-09-09T23:11:32;17.30;99.90
52273;DHT22;38227;50.942;4.016;2022-09-09T23:14:01;17.30;99.90
52273;DHT22;38227;50.942;4.016;2022-09-09T23:16:37;17.30;99.90
52273;DHT22;38227;50.942;4.016;2022-09-09T23:19:06;17.20;99.90
52273;DHT22;38227;50.942;4.016;2022-09-09T23:21:37;17.20;99.90
52273;DHT22;38227;50.942;4.016;2022-09-09T23:24:07;17.20;99.90
52273;DHT22;38227;50.942;4.016;2022-09-09T23:26:39;17.20;99.90
52273;DHT22;38227;50.942;4.016;2022-09-09T23:29:08;17.20;99.90
52273;DHT22;38227;50.942;4.016;2022-09-09T23:31:42;17.20;99.90
52273;DHT22;38227;50.942;4.016;2022-09-09T23:34:11;17.20;99.90
52273;DHT22;38227;50.942;4.016;2022-09-09T23:36:44;17.20;99.90
52273;DHT22;38227;50.942;4.016;2022-09-09T23:39:12;17.20;99.90
52273;DHT22;38227;50.942;4.016;2022-09-09T23:41:40;17.20;99.90
52273;DHT22;38227;50.942;4.016;2022-09-09T23:44:13;17.30;99.90
52273;DHT22;38227;50.942;4.016;2022-09-09T23:46:47;17.20;99.90
52273;DHT22;38227;50.942;4.016;2022-09-09T23:49:19;17.40;99.90
52273;DHT22;38227;50.942;4.016;2022-09-09T23:51:52;17.30;99.90
52273;DHT22;38227;50.942;4.016;2022-09-09T23:54:24;17.30;99.90
52273;DHT22;38227;50.942;4.016;2022-09-09T23:56:52;17.40;99.90
52273;DHT22;38227;50.942;4.016;2022-09-09T23:59:24;17.40;99.90
